Time;durP1;ratioP1;P1;durP2;ratioP2;P2;SDS_P1;SDS_P2;PMS_P1;PMS_P2;Temp;Humidity;BMP_temperature;BMP_pressure;BME280_temperature;BME280_humidity;BME280_pressure;Samples;Min_cycle;Max_cycle;Signal;HPM_P1;HPM_P2
2021/08/21 00:02:18;;;;;;;3.38;3.08;;;15.80;75.30;;;;;;5019999;27;96612;-58
2021/08/21 00:04:49;;;;;;;4.75;4.35;;;15.80;75.30;;;;;;5022234;27;95821;-56
2021/08/21 00:07:19;;;;;;;5.78;5.28;;;15.80;75.30;;;;;;5029468;27;95200;-58
2021/08/21 00:09:49;;;;;;;8.35;7.65;;;15.80;75.30;;;;;;5028841;27;95944;-57
2021/08/21 00:12:22;;;;;;;8.48;7.68;;;15.80;75.40;;;;;;5026693;27;95626;-57
2021/08/21 00:14:52;;;;;;;10.85;9.75;;;15.80;75.50;;;;;;5030256;28;95895;-53
2021/08/21 00:17:24;;;;;;;10.50;9.52;;;15.80;75.50;;;;;;5017333;27;95876;-55
2021/08/21 00:19:56;;;;;;;10.23;9.25;;;15.80;75.40;;;;;;5019981;27;96325;-57
2021/08/21 00:22:27;;;;;;;9.43;8.52;;;15.80;75.50;;;;;;5028555;27;95332;-57
2021/08/21 00:25:01;;;;;;;10.25;9.25;;;15.80;75.50;;;;;;5025462;27;95154;-56
2021/08/21 00:27:31;;;;;;;9.73;8.85;;;15.80;75.50;;;;;;5026215;27;95797;-57
2021/08/21 00:30:03;;;;;;;9.73;8.82;;;15.80;75.60;;;;;;5023807;27;96423;-57
2021/08/21 00:32:35;;;;;;;10.23;9.23;;;15.80;75.60;;;;;;5015224;27;95913;-57
2021/08/21 00:35:08;;;;;;;11.07;9.98;;;15.80;75.40;;;;;;5017014;27;95451;-56
2021/08/21 00:37:39;;;;;;;9.38;8.48;;;15.80;75.40;;;;;;5019282;27;95688;-56
2021/08/21 00:40:09;;;;;;;10.00;9.00;;;15.80;75.40;;;;;;5014994;27;95823;-56
2021/08/21 00:42:41;;;;;;;9.77;8.88;;;15.80;75.40;;;;;;5017197;27;96034;-57
2021/08/21 00:45:12;;;;;;;9.25;8.43;;;15.80;75.40;;;;;;5011396;27;96183;-57
2021/08/21 00:47:42;;;;;;;9.57;8.57;;;15.80;75.40;;;;;;5035128;27;95407;-56
2021/08/21 00:50:12;;;;;;;9.90;9.00;;;15.80;75.40;;;;;;5018666;27;95934;-58
2021/08/21 00:52:43;;;;;;;8.07;7.30;;;15.90;75.40;;;;;;5019489;27;96094;-55
2021/08/21 00:55:14;;;;;;;8.68;7.80;;;15.80;75.40;;;;;;5007858;27;95845;-56
2021/08/21 00:57:44;;;;;;;8.80;7.97;;;15.90;75.40;;;;;;5002321;27;97559;-56
2021/08/21 01:00:16;;;;;;;8.48;7.68;;;15.90;75.40;;;;;;5009441;27;97370;-55
2021/08/21 01:02:47;;;;;;;9.85;8.95;;;15.90;75.40;;;;;;5019802;27;102087;-57
2021/08/21 01:05:19;;;;;;;8.13;7.32;;;15.90;75.40;;;;;;5019997;27;95952;-55
2021/08/21 01:07:50;;;;;;;8.82;7.90;;;15.90;75.30;;;;;;5021003;27;95804;-56
2021/08/21 01:10:21;;;;;;;8.50;7.70;;;15.90;75.40;;;;;;5011558;28;96064;-55
2021/08/21 01:12:54;;;;;;;;;;;15.90;75.40;;;;;;5010228;28;97742;-57
2021/08/21 01:15:26;;;;;;;10.45;9.45;;;15.90;75.30;;;;;;5025599;27;96110;-57
2021/08/21 01:18:10;;;;;;;8.95;8.05;;;15.90;75.40;;;;;;5042730;27;96076;-56
2021/08/21 01:20:43;;;;;;;8.10;7.40;;;16.00;75.50;;;;;;5026087;27;95957;-55
2021/08/21 01:23:18;;;;;;;8.15;7.45;;;16.00;75.40;;;;;;5044822;27;95931;-59
2021/08/21 01:26:01;;;;;;;7.72;7.03;;;16.00;75.30;;;;;;5010990;28;95584;-56
2021/08/21 01:28:49;;;;;;;8.30;7.60;;;16.00;75.30;;;;;;5034692;27;95776;-54
2021/08/21 01:31:59;;;;;;;8.07;7.28;;;16.00;75.30;;;;;;5001227;28;95713;-56
2021/08/21 01:34:30;;;;;;;7.93;7.22;;;16.00;75.30;;;;;;4987777;28;97889;-55
2021/08/21 01:37:02;;;;;;;7.50;6.80;;;16.10;75.30;;;;;;4995575;27;95862;-57
2021/08/21 01:39:55;;;;;;;6.60;6.00;;;16.10;75.30;;;;;;5001826;27;95868;-54
2021/08/21 01:42:38;;;;;;;7.18;6.47;;;16.10;75.20;;;;;;5038745;27;98644;-55
2021/08/21 01:45:13;;;;;;;7.05;6.35;;;16.10;75.20;;;;;;5015521;27;95581;-55
2021/08/21 01:47:47;;;;;;;7.40;6.80;;;16.20;75.20;;;;;;5008478;28;95894;-56
2021/08/21 01:50:19;;;;;;;7.47;6.75;;;16.20;75.10;;;;;;5011928;28;95335;-54
2021/08/21 01:52:52;;;;;;;6.32;5.72;;;16.20;75.00;;;;;;5008699;28;96289;-54
2021/08/21 01:55:39;;;;;;;6.80;6.20;;;16.20;74.90;;;;;;5028826;27;98362;-55
2021/08/21 01:58:21;;;;;;;5.75;5.22;;;16.30;75.10;;;;;;5045163;27;96012;-55
2021/08/21 02:01:15;;;;;;;6.53;5.95;;;16.30;75.10;;;;;;5040304;27;97829;-55
2021/08/21 02:04:08;;;;;;;6.88;6.28;;;16.30;75.70;;;;;;5014406;27;95908;-55
2021/08/21 02:06:39;;;;;;;8.85;5.30;;;16.30;75.90;;;;;;5003344;28;97716;-57
2021/08/21 02:09:12;;;;;;;6.65;6.00;;;16.30;76.60;;;;;;5008333;28;95628;-57
2021/08/21 02:11:43;;;;;;;6.20;5.60;;;16.30;76.00;;;;;;5028395;27;96134;-57
2021/08/21 02:14:14;;;;;;;5.90;5.37;;;16.20;76.10;;;;;;5008986;28;96797;-57
2021/08/21 02:16:51;;;;;;;7.38;5.90;;;16.30;76.10;;;;;;5022522;27;95465;-57
2021/08/21 02:19:22;;;;;;;6.00;5.43;;;16.30;76.00;;;;;;5031892;27;95872;-56
2021/08/21 02:22:14;;;;;;;5.65;5.15;;;16.30;75.60;;;;;;5008585;28;95460;-56
2021/08/21 02:24:51;;;;;;;5.13;4.63;;;16.40;75.60;;;;;;5039030;27;96225;-55
2021/08/21 02:27:24;;;;;;;6.25;5.00;;;16.40;75.70;;;;;;5008745;27;96005;-56
2021/08/21 02:29:55;;;;;;;5.32;4.82;;;16.40;76.00;;;;;;5019964;27;95761;-56
2021/08/21 02:32:26;;;;;;;5.85;5.35;;;16.40;75.90;;;;;;5013862;27;95621;-60
2021/08/21 02:34:59;;;;;;;4.32;4.03;;;16.40;75.90;;;;;;5021219;27;97979;-57
2021/08/21 02:37:29;;;;;;;6.15;4.75;;;16.40;75.80;;;;;;5038537;27;97188;-60
2021/08/21 02:40:03;;;;;;;4.95;4.43;;;16.40;75.70;;;;;;5004208;27;96194;-60
2021/08/21 02:42:34;;;;;;;5.15;4.05;;;16.40;75.80;;;;;;5022426;27;96234;-61
2021/08/21 02:45:05;;;;;;;;;;;16.40;75.80;;;;;;5018314;28;95916;-60
2021/08/21 02:47:37;;;;;;;4.50;4.10;;;16.50;75.80;;;;;;5021307;27;95423;-61
2021/08/21 02:50:08;;;;;;;3.97;3.67;;;16.50;75.80;;;;;;5027861;27;95573;-60
2021/08/21 02:52:42;;;;;;;4.60;4.20;;;16.50;75.70;;;;;;5023005;27;96002;-62
2021/08/21 02:55:13;;;;;;;4.35;3.95;;;16.50;75.70;;;;;;5038380;27;97941;-61
2021/08/21 02:57:49;;;;;;;4.30;3.90;;;16.50;75.70;;;;;;5026970;27;96312;-61
2021/08/21 03:00:27;;;;;;;3.83;3.53;;;16.50;75.70;;;;;;5033436;27;95389;-56
2021/08/21 03:03:00;;;;;;;3.58;3.28;;;16.50;75.70;;;;;;5022765;27;95407;-59
2021/08/21 03:05:32;;;;;;;3.92;3.60;;;16.50;75.60;;;;;;5009828;28;96089;-60
2021/08/21 03:08:03;;;;;;;3.67;3.28;;;16.60;75.50;;;;;;5014357;28;95881;-61
2021/08/21 03:10:41;;;;;;;4.15;3.75;;;16.60;75.50;;;;;;4998309;27;97947;-55
2021/08/21 03:13:12;;;;;;;4.15;3.45;;;16.60;75.60;;;;;;5012893;27;97811;-60
2021/08/21 03:15:43;;;;;;;3.72;3.03;;;16.60;75.70;;;;;;5013545;27;96076;-61
2021/08/21 03:18:14;;;;;;;3.10;2.80;;;16.60;75.70;;;;;;5032105;27;97318;-60
2021/08/21 03:20:49;;;;;;;3.22;2.95;;;16.60;75.70;;;;;;5009958;27;95847;-60
2021/08/21 03:23:21;;;;;;;;;;;16.60;75.70;;;;;;5029508;27;95905;-56
2021/08/21 03:25:52;;;;;;;3.13;2.88;;;16.60;75.70;;;;;;5028725;27;97850;-54
2021/08/21 03:28:23;;;;;;;3.85;3.10;;;16.60;75.70;;;;;;5015234;27;97676;-61
2021/08/21 03:30:53;;;;;;;3.60;3.30;;;16.60;75.70;;;;;;4999577;27;96784;-61
2021/08/21 03:33:28;;;;;;;3.97;3.13;;;16.60;75.60;;;;;;5034375;27;95726;-57
2021/08/21 03:35:59;;;;;;;3.35;3.05;;;16.60;75.60;;;;;;5005435;28;96028;-55
2021/08/21 03:38:32;;;;;;;3.50;3.20;;;16.60;75.60;;;;;;4995828;27;95739;-61
2021/08/21 03:41:11;;;;;;;4.70;3.42;;;16.60;75.60;;;;;;5027350;27;95930;-56
2021/08/21 03:43:56;;;;;;;4.90;3.42;;;16.70;75.70;;;;;;5033633;27;96450;-60
2021/08/21 03:46:28;;;;;;;2.90;2.70;;;16.70;75.70;;;;;;4993429;27;98613;-59
2021/08/21 03:48:58;;;;;;;2.88;2.67;;;16.70;75.40;;;;;;5000900;27;95908;-56
2021/08/21 03:51:31;;;;;;;2.67;2.47;;;16.80;75.20;;;;;;5005392;27;95272;-59
2021/08/21 03:54:04;;;;;;;2.85;2.58;;;16.90;75.20;;;;;;5016331;27;95727;-56
2021/08/21 03:56:33;;;;;;;2.35;2.08;;;17.00;75.20;;;;;;5032933;27;98580;-59
2021/08/21 03:59:06;;;;;;;2.88;2.60;;;17.00;75.20;;;;;;5007413;28;96707;-59
2021/08/21 04:01:47;;;;;;;2.67;2.03;;;17.00;75.00;;;;;;5019094;27;96218;-60
2021/08/21 04:04:31;;;;;;;2.42;2.22;;;17.10;74.90;;;;;;5007866;27;96236;-59
2021/08/21 04:07:20;;;;;;;3.03;2.70;;;17.10;74.80;;;;;;5021410;27;96476;-57
2021/08/21 04:09:50;;;;;;;3.17;2.33;;;17.20;74.80;;;;;;5020635;27;96000;-55
2021/08/21 04:12:21;;;;;;;2.75;2.30;;;17.20;74.80;;;;;;5018221;28;95750;-59
2021/08/21 04:15:04;;;;;;;2.67;2.47;;;17.20;74.70;;;;;;5046543;27;95964;-57
2021/08/21 04:17:36;;;;;;;3.22;1.88;;;17.20;74.70;;;;;;5008247;28;98759;-59
2021/08/21 04:20:08;;;;;;;3.28;2.97;;;17.30;74.70;;;;;;5047418;27;95749;-59
2021/08/21 04:22:41;;;;;;;2.30;2.10;;;17.30;74.70;;;;;;5010469;28;95795;-55
2021/08/21 04:25:14;;;;;;;2.72;1.95;;;17.30;74.60;;;;;;5045250;27;95775;-55
2021/08/21 04:27:44;;;;;;;2.58;2.35;;;17.30;74.50;;;;;;5006544;28;96163;-59
2021/08/21 04:30:15;;;;;;;2.28;2.08;;;17.30;74.50;;;;;;5012082;28;95948;-53
2021/08/21 04:32:48;;;;;;;2.45;2.08;;;17.40;74.50;;;;;;5009881;28;95873;-59
2021/08/21 04:35:22;;;;;;;2.03;1.80;;;17.40;74.40;;;;;;5029128;28;98287;-58
2021/08/21 04:37:58;;;;;;;2.17;2.03;;;17.40;74.40;;;;;;5043187;27;96082;-59
2021/08/21 04:40:31;;;;;;;2.42;1.90;;;17.50;74.40;;;;;;5042414;27;97638;-58
2021/08/21 04:43:04;;;;;;;1.88;1.77;;;17.40;74.30;;;;;;5041218;27;95884;-58
2021/08/21 04:45:36;;;;;;;2.38;2.20;;;17.40;74.70;;;;;;5001128;27;96013;-59
2021/08/21 04:48:06;;;;;;;2.25;2.03;;;17.40;74.20;;;;;;5027423;27;96091;-58
2021/08/21 04:50:37;;;;;;;2.08;1.88;;;17.50;74.30;;;;;;5031464;27;97265;-60
2021/08/21 04:53:08;;;;;;;1.80;1.70;;;17.50;74.20;;;;;;5012129;28;95846;-59
2021/08/21 04:55:44;;;;;;;2.15;1.95;;;17.50;74.10;;;;;;5010807;28;96134;-59
2021/08/21 04:58:16;;;;;;;1.85;1.75;;;17.50;74.10;;;;;;5010842;28;97052;-57
2021/08/21 05:00:49;;;;;;;2.38;1.80;;;17.50;74.00;;;;;;5041186;27;97668;-59
2021/08/21 05:03:25;;;;;;;1.88;1.77;;;17.50;74.00;;;;;;5007126;28;95689;-58
2021/08/21 05:05:56;;;;;;;2.05;1.80;;;17.60;73.90;;;;;;5012172;28;97877;-55
2021/08/21 05:08:27;;;;;;;1.80;1.70;;;17.60;74.00;;;;;;5010242;28;96651;-58
2021/08/21 05:10:58;;;;;;;1.83;1.73;;;17.60;74.00;;;;;;5008444;28;97640;-58
2021/08/21 05:13:32;;;;;;;2.95;2.20;;;17.60;73.90;;;;;;5042963;27;95747;-57
2021/08/21 05:16:08;;;;;;;3.63;2.00;;;17.60;73.90;;;;;;4986543;28;96181;-58
2021/08/21 05:18:50;;;;;;;2.80;1.50;;;17.60;73.70;;;;;;5033611;27;98119;-59
2021/08/21 05:21:33;;;;;;;4.13;2.00;;;17.60;73.70;;;;;;5031564;27;95885;-58
2021/08/21 05:24:05;;;;;;;1.98;1.77;;;17.60;73.80;;;;;;5034208;27;95770;-57
2021/08/21 05:26:35;;;;;;;2.70;1.90;;;17.70;73.80;;;;;;5022260;27;95774;-59
2021/08/21 05:29:06;;;;;;;4.88;1.75;;;17.60;73.70;;;;;;5009562;28;98740;-57
2021/08/21 05:31:37;;;;;;;;;;;17.70;73.70;;;;;;5039563;27;97318;-57
2021/08/21 05:34:14;;;;;;;2.88;1.90;;;17.60;73.70;;;;;;5032285;27;98142;-58
2021/08/21 05:36:48;;;;;;;2.97;1.50;;;17.70;73.80;;;;;;5030113;27;95911;-57
2021/08/21 05:39:19;;;;;;;1.40;1.30;;;17.70;73.90;;;;;;5011071;28;95926;-57
2021/08/21 05:41:50;;;;;;;1.98;1.85;;;17.70;74.00;;;;;;5038230;27;95726;-58
2021/08/21 05:44:27;;;;;;;1.90;1.42;;;17.60;73.90;;;;;;5022415;27;100504;-59
2021/08/21 05:46:59;;;;;;;2.13;1.70;;;17.70;74.20;;;;;;4973268;27;98685;-58
2021/08/21 05:49:29;;;;;;;3.15;1.58;;;17.70;74.30;;;;;;5006351;28;98475;-56
2021/08/21 05:52:00;;;;;;;2.50;1.80;;;17.80;74.60;;;;;;5022571;28;96120;-58
2021/08/21 05:54:32;;;;;;;1.50;1.40;;;17.80;74.30;;;;;;5035889;27;95647;-54
2021/08/21 05:57:10;;;;;;;3.00;2.10;;;17.80;74.10;;;;;;5004954;28;95775;-57
2021/08/21 05:59:41;;;;;;;2.63;1.70;;;17.90;74.20;;;;;;5023014;27;96567;-58
2021/08/21 06:02:12;;;;;;;5.00;2.17;;;17.90;74.00;;;;;;5014352;28;95862;-61
2021/08/21 06:04:42;;;;;;;3.03;1.65;;;17.90;73.70;;;;;;5018591;27;96309;-58
2021/08/21 06:07:12;;;;;;;3.83;1.95;;;17.90;73.70;;;;;;5004104;28;96866;-57
2021/08/21 06:09:41;;;;;;;2.15;1.90;;;17.90;73.50;;;;;;5005392;27;97479;-58
2021/08/21 06:12:12;;;;;;;1.80;1.70;;;18.00;73.40;;;;;;5005242;28;95856;-59
2021/08/21 06:14:44;;;;;;;2.30;2.10;;;18.00;73.30;;;;;;5023669;27;95819;-59
2021/08/21 06:17:16;;;;;;;2.65;1.95;;;18.00;73.30;;;;;;5017710;28;95992;-58
2021/08/21 06:19:48;;;;;;;2.38;1.55;;;18.10;73.20;;;;;;5021479;28;96786;-56
2021/08/21 06:22:20;;;;;;;1.83;1.73;;;18.10;72.90;;;;;;5021829;27;96427;-58
2021/08/21 06:24:52;;;;;;;2.38;2.17;;;18.10;72.90;;;;;;5023124;27;98160;-57
2021/08/21 06:27:22;;;;;;;3.10;2.03;;;18.10;72.90;;;;;;5023040;27;96119;-58
2021/08/21 06:29:52;;;;;;;1.75;1.65;;;18.10;72.80;;;;;;5021309;27;95691;-59
2021/08/21 06:32:24;;;;;;;4.82;2.13;;;18.10;72.70;;;;;;5000321;28;96467;-57
2021/08/21 06:34:56;;;;;;;3.10;2.80;;;18.10;72.60;;;;;;5021787;27;96128;-59
2021/08/21 06:37:28;;;;;;;3.92;2.75;;;18.10;72.70;;;;;;5019388;27;96359;-58
2021/08/21 06:39:59;;;;;;;;;;;18.10;72.60;;;;;;5020832;27;96493;-58
2021/08/21 06:42:32;;;;;;;3.08;2.35;;;18.20;72.60;;;;;;5021294;27;96382;-58
2021/08/21 06:45:11;;;;;;;3.33;2.70;;;18.20;73.20;;;;;;4989858;27;96313;-60
2021/08/21 06:47:44;;;;;;;3.35;2.45;;;18.20;72.40;;;;;;5015253;27;95993;-59
2021/08/21 06:50:15;;;;;;;3.03;2.50;;;18.10;72.40;;;;;;5018876;28;96530;-61
2021/08/21 06:52:48;;;;;;;3.47;2.75;;;18.10;72.40;;;;;;5014228;27;95990;-57
2021/08/21 06:55:19;;;;;;;3.72;2.63;;;18.20;72.30;;;;;;5015259;27;96438;-57
2021/08/21 06:58:06;;;;;;;4.28;2.83;;;18.10;72.20;;;;;;5019158;27;95874;-59
2021/08/21 07:00:38;;;;;;;5.15;2.70;;;18.10;72.50;;;;;;5014465;27;96452;-57
2021/08/21 07:03:09;;;;;;;3.45;2.47;;;18.10;72.40;;;;;;5017751;27;96428;-57
2021/08/21 07:05:40;;;;;;;3.43;2.13;;;18.10;72.40;;;;;;5020760;27;96406;-55
2021/08/21 07:08:10;;;;;;;3.80;2.95;;;18.10;72.50;;;;;;5018487;27;96403;-59
2021/08/21 07:10:40;;;;;;;2.65;2.17;;;18.10;72.50;;;;;;5018014;27;96272;-56
2021/08/21 07:13:10;;;;;;;3.03;2.30;;;18.10;72.50;;;;;;5021119;27;96607;-57
2021/08/21 07:15:42;;;;;;;6.30;2.63;;;18.10;72.40;;;;;;5016033;27;95845;-58
2021/08/21 07:18:14;;;;;;;4.40;2.40;;;18.10;72.40;;;;;;5019303;27;95740;-57
2021/08/21 07:20:45;;;;;;;3.20;2.42;;;18.00;72.40;;;;;;5021552;27;96280;-58
2021/08/21 07:23:15;;;;;;;3.20;2.90;;;18.10;72.40;;;;;;5004034;28;95382;-52
2021/08/21 07:25:45;;;;;;;2.65;2.10;;;18.10;72.40;;;;;;5020615;27;95344;-58
2021/08/21 07:28:15;;;;;;;3.00;2.25;;;18.10;72.40;;;;;;5018416;27;96167;-56
2021/08/21 07:30:45;;;;;;;3.35;2.22;;;18.10;72.30;;;;;;5016709;27;96921;-51
2021/08/21 07:33:17;;;;;;;2.72;2.53;;;18.10;72.30;;;;;;5022460;27;96422;-57
2021/08/21 07:35:50;;;;;;;2.47;2.28;;;18.10;72.70;;;;;;5028262;28;95662;-53
2021/08/21 07:38:21;;;;;;;2.28;2.05;;;18.00;72.50;;;;;;5027932;27;95559;-58
2021/08/21 07:40:53;;;;;;;3.20;2.63;;;17.90;72.70;;;;;;5026809;27;96148;-58
2021/08/21 07:43:23;;;;;;;;;;;17.80;73.20;;;;;;5026462;27;95480;-57
2021/08/21 07:45:55;;;;;;;3.03;2.25;;;17.80;73.50;;;;;;5013474;27;95896;-56
2021/08/21 07:48:26;;;;;;;2.28;2.08;;;17.70;73.50;;;;;;5030801;27;95823;-54
2021/08/21 07:50:56;;;;;;;3.90;2.50;;;17.70;73.60;;;;;;5031505;28;97830;-54
2021/08/21 07:53:27;;;;;;;2.78;2.15;;;17.60;73.60;;;;;;5031105;28;95803;-58
2021/08/21 07:55:59;;;;;;;2.50;2.30;;;17.60;73.70;;;;;;5036078;27;95775;-57
2021/08/21 07:58:29;;;;;;;;;;;17.60;73.70;;;;;;5029353;28;95908;-54
2021/08/21 08:00:58;;;;;;;2.40;1.75;;;17.60;73.80;;;;;;5022754;27;96438;-55
2021/08/21 08:03:29;;;;;;;4.57;2.40;;;17.60;73.80;;;;;;5024514;27;95865;-58
2021/08/21 08:05:59;;;;;;;2.75;1.90;;;17.50;73.80;;;;;;5030953;27;95629;-53
2021/08/21 08:08:30;;;;;;;2.72;2.20;;;17.50;73.70;;;;;;5031572;28;95539;-58
2021/08/21 08:11:00;;;;;;;;;;;17.50;73.70;;;;;;5031781;27;95973;-53
2021/08/21 08:13:31;;;;;;;3.65;2.47;;;17.50;73.80;;;;;;5032046;28;95724;-54
2021/08/21 08:16:02;;;;;;;2.60;2.08;;;17.50;73.90;;;;;;5017225;27;96099;-55
2021/08/21 08:18:33;;;;;;;2.85;2.42;;;17.40;73.90;;;;;;5029824;28;95793;-53
2021/08/21 08:21:06;;;;;;;2.90;2.33;;;17.40;74.00;;;;;;5030446;27;95913;-55
2021/08/21 08:23:37;;;;;;;3.03;2.17;;;17.40;74.10;;;;;;5042155;27;95837;-55
2021/08/21 08:26:07;;;;;;;3.55;2.40;;;17.30;74.10;;;;;;5012626;28;95712;-55
2021/08/21 08:28:36;;;;;;;3.13;2.00;;;17.30;74.20;;;;;;5031142;28;95830;-56
2021/08/21 08:31:07;;;;;;;2.60;1.88;;;17.30;74.30;;;;;;5023630;27;98890;-52
2021/08/21 08:33:39;;;;;;;3.13;2.47;;;17.30;74.60;;;;;;5027419;28;95292;-55
2021/08/21 08:36:10;;;;;;;2.08;1.88;;;17.20;74.80;;;;;;5030147;27;95886;-55
2021/08/21 08:38:41;;;;;;;3.22;2.45;;;17.20;75.20;;;;;;5030516;28;95736;-52
2021/08/21 08:41:20;;;;;;;3.42;2.90;;;17.20;76.00;;;;;;5030617;27;96458;-53
2021/08/21 08:43:53;;;;;;;4.00;2.60;;;17.20;75.80;;;;;;5025178;27;95351;-55
2021/08/21 08:46:24;;;;;;;2.35;2.03;;;17.20;75.90;;;;;;5001124;28;95985;-55
2021/08/21 08:49:02;;;;;;;2.42;2.22;;;17.20;76.20;;;;;;5045548;27;95718;-54
2021/08/21 08:51:36;;;;;;;2.38;2.22;;;17.20;76.40;;;;;;5027480;27;95636;-52
2021/08/21 08:54:08;;;;;;;2.75;2.40;;;17.20;76.70;;;;;;5029974;28;95929;-55
2021/08/21 08:56:37;;;;;;;2.72;2.53;;;17.20;76.90;;;;;;5030786;27;95412;-55
2021/08/21 08:59:07;;;;;;;2.55;2.00;;;17.10;76.80;;;;;;5030865;28;95803;-54
2021/08/21 09:01:40;;;;;;;2.25;2.03;;;17.10;76.70;;;;;;5025281;27;96361;-54
2021/08/21 09:04:23;;;;;;;2.90;2.00;;;17.20;77.50;;;;;;5030097;28;95491;-53
2021/08/21 09:06:55;;;;;;;3.13;2.30;;;17.20;76.50;;;;;;5028539;27;95615;-55
2021/08/21 09:09:26;;;;;;;2.17;1.98;;;17.20;75.90;;;;;;5029789;28;95705;-54
2021/08/21 09:11:56;;;;;;;;;;;17.30;75.60;;;;;;5029393;27;96078;-55
2021/08/21 09:14:33;;;;;;;2.72;2.15;;;17.40;75.30;;;;;;5025008;28;95721;-53
2021/08/21 09:17:20;;;;;;;3.05;2.28;;;17.50;75.00;;;;;;5021845;27;97749;-56
2021/08/21 09:20:06;;;;;;;2.20;1.90;;;17.60;75.00;;;;;;5023503;28;95360;-52
2021/08/21 09:22:36;;;;;;;2.80;2.00;;;17.60;75.10;;;;;;5026307;27;95819;-58
2021/08/21 09:25:11;;;;;;;2.47;2.20;;;17.60;75.30;;;;;;5026953;28;95793;-57
2021/08/21 09:27:41;;;;;;;2.60;1.90;;;17.60;75.50;;;;;;5027978;27;96179;-55
2021/08/21 09:30:17;;;;;;;2.35;2.05;;;17.50;75.40;;;;;;5025627;28;95787;-55
2021/08/21 09:32:50;;;;;;;2.47;1.90;;;17.60;75.50;;;;;;5029220;27;102237;-54
2021/08/21 09:35:21;;;;;;;2.60;1.88;;;17.50;75.50;;;;;;5029465;28;95744;-55
2021/08/21 09:37:58;;;;;;;2.60;1.95;;;17.50;75.50;;;;;;5029250;27;95225;-54
2021/08/21 09:40:30;;;;;;;2.42;2.10;;;17.50;75.50;;;;;;5028315;28;95419;-55
2021/08/21 09:43:07;;;;;;;2.42;2.22;;;17.50;75.40;;;;;;5027602;27;96021;-54
2021/08/21 09:45:39;;;;;;;3.72;1.98;;;17.50;75.40;;;;;;5014198;27;98020;-57
2021/08/21 09:48:09;;;;;;;2.92;1.88;;;17.50;75.40;;;;;;5026436;27;96694;-55
2021/08/21 09:50:41;;;;;;;2.63;2.10;;;17.50;75.20;;;;;;5025525;27;95589;-57
2021/08/21 09:53:13;;;;;;;2.65;2.13;;;17.50;75.10;;;;;;5001104;27;96304;-51
2021/08/21 09:55:44;;;;;;;2.85;2.00;;;17.50;75.00;;;;;;5022037;27;95760;-55
2021/08/21 09:58:20;;;;;;;4.83;2.30;;;17.50;75.00;;;;;;5027009;27;95658;-53
2021/08/21 10:00:54;;;;;;;2.60;2.03;;;17.50;75.00;;;;;;5026510;27;95670;-53
2021/08/21 10:03:24;;;;;;;3.10;1.83;;;17.50;75.00;;;;;;4994593;27;97069;-52
2021/08/21 10:05:54;;;;;;;2.47;2.13;;;17.50;74.90;;;;;;5029872;27;95676;-54
2021/08/21 10:08:28;;;;;;;3.33;2.13;;;17.40;74.90;;;;;;5025706;27;95559;-54
2021/08/21 10:10:59;;;;;;;2.13;1.83;;;17.40;74.80;;;;;;5010369;27;96075;-52
2021/08/21 10:13:35;;;;;;;2.70;2.10;;;17.40;75.20;;;;;;5025737;27;96033;-55
2021/08/21 10:16:10;;;;;;;2.42;2.15;;;17.40;75.20;;;;;;5022722;27;95828;-53
2021/08/21 10:18:43;;;;;;;2.72;2.10;;;17.30;75.10;;;;;;5024617;27;95310;-55
2021/08/21 10:21:17;;;;;;;2.20;1.98;;;17.30;75.20;;;;;;5022513;27;95773;-56
2021/08/21 10:23:51;;;;;;;3.53;1.90;;;17.30;75.20;;;;;;5010324;27;96619;-55
2021/08/21 10:26:39;;;;;;;2.53;2.05;;;17.30;75.30;;;;;;5029638;27;95646;-55
2021/08/21 10:29:13;;;;;;;3.65;2.30;;;17.30;75.40;;;;;;5026762;27;96017;-57
2021/08/21 10:31:47;;;;;;;2.83;2.45;;;17.20;75.70;;;;;;5019336;27;95366;-58
2021/08/21 10:34:18;;;;;;;2.72;2.00;;;17.20;76.00;;;;;;5021883;27;95896;-55
2021/08/21 10:36:58;;;;;;;2.50;2.00;;;17.20;76.20;;;;;;5022853;27;95885;-56
2021/08/21 10:39:35;;;;;;;2.80;2.22;;;17.20;76.20;;;;;;5041581;27;96505;-53
2021/08/21 10:42:30;;;;;;;3.05;2.10;;;17.20;76.10;;;;;;5024725;27;95698;-56
2021/08/21 10:45:01;;;;;;;2.13;1.98;;;17.20;76.20;;;;;;5011982;27;100383;-57
2021/08/21 10:47:35;;;;;;;2.50;2.10;;;17.20;76.20;;;;;;5011940;27;95606;-59
2021/08/21 10:50:17;;;;;;;2.72;2.30;;;17.20;76.20;;;;;;5019395;27;96381;-55
2021/08/21 10:52:53;;;;;;;3.25;2.55;;;17.20;76.20;;;;;;5021721;27;95717;-56
2021/08/21 10:55:26;;;;;;;3.05;2.10;;;17.20;76.20;;;;;;5023261;27;96566;-56
2021/08/21 10:58:07;;;;;;;4.13;2.35;;;17.10;76.10;;;;;;5024740;27;96189;-54
2021/08/21 11:00:39;;;;;;;2.53;2.27;;;17.10;76.10;;;;;;5033120;27;95831;-58
2021/08/21 11:03:17;;;;;;;2.60;2.40;;;17.10;76.10;;;;;;5024326;27;95337;-55
2021/08/21 11:05:57;;;;;;;3.13;2.35;;;17.10;76.20;;;;;;5023141;27;96420;-55
2021/08/21 11:08:32;;;;;;;3.27;1.87;;;17.10;76.00;;;;;;5022466;27;95613;-54
2021/08/21 11:13:59;;;;;;;2.67;2.45;;;17.10;76.10;;;;;;5020257;27;95764;-55
2021/08/21 11:16:53;;;;;;;2.58;2.10;;;17.10;76.10;;;;;;5028655;27;96729;-53
2021/08/21 11:19:43;;;;;;;2.30;1.58;;;17.00;76.10;;;;;;5018283;27;95843;-55
2021/08/21 11:22:24;;;;;;;3.30;2.22;;;17.00;76.10;;;;;;5017511;27;95733;-56
2021/08/21 11:25:06;;;;;;;2.90;2.10;;;17.00;76.10;;;;;;5022385;27;95882;-56
2021/08/21 11:27:38;;;;;;;3.22;2.33;;;17.00;76.20;;;;;;5019037;27;96491;-56
2021/08/21 11:30:10;;;;;;;3.00;1.92;;;17.00;76.20;;;;;;5023564;27;95835;-56
2021/08/21 11:32:58;;;;;;;2.75;2.25;;;17.00;76.10;;;;;;5011177;27;96149;-53
2021/08/21 11:35:51;;;;;;;2.70;2.28;;;16.90;76.10;;;;;;5024874;28;95598;-55
2021/08/21 11:38:35;;;;;;;2.20;2.00;;;16.90;76.10;;;;;;5040761;27;95926;-56
2021/08/21 11:41:13;;;;;;;2.28;2.08;;;16.90;76.10;;;;;;5024126;27;95709;-56
2021/08/21 11:43:46;;;;;;;2.65;2.15;;;16.90;76.10;;;;;;5022296;27;95563;-57
2021/08/21 11:46:24;;;;;;;2.65;2.45;;;16.90;76.10;;;;;;5014090;27;95951;-57
2021/08/21 11:49:04;;;;;;;2.25;2.00;;;16.90;76.10;;;;;;5025900;27;95875;-56
2021/08/21 11:51:38;;;;;;;2.67;2.22;;;16.80;76.20;;;;;;5027060;27;95710;-56
2021/08/21 11:54:09;;;;;;;2.10;1.90;;;16.80;76.10;;;;;;5024442;27;95772;-56
2021/08/21 11:56:55;;;;;;;2.78;2.45;;;16.80;76.10;;;;;;5026090;27;95944;-55
2021/08/21 11:59:27;;;;;;;2.55;2.17;;;16.80;76.10;;;;;;5024451;27;96461;-57
2021/08/21 12:02:10;;;;;;;3.53;2.65;;;16.80;76.20;;;;;;5027559;27;95918;-55
2021/08/21 12:04:55;;;;;;;2.60;1.95;;;16.70;76.20;;;;;;5022005;27;95764;-53
2021/08/21 12:07:34;;;;;;;3.42;2.30;;;16.70;76.10;;;;;;5037662;27;95967;-55
2021/08/21 12:10:04;;;;;;;2.08;1.88;;;16.70;76.20;;;;;;5022895;27;95878;-56
2021/08/21 12:12:35;;;;;;;2.40;2.20;;;16.70;76.10;;;;;;5024213;27;96187;-56
2021/08/21 12:15:09;;;;;;;2.72;1.95;;;16.70;76.20;;;;;;5020276;27;95929;-56
2021/08/21 12:17:40;;;;;;;2.70;2.45;;;16.70;76.20;;;;;;5023751;27;98039;-55
2021/08/21 12:20:11;;;;;;;;;;;16.60;76.20;;;;;;5022193;27;95918;-55
2021/08/21 12:22:43;;;;;;;1.80;1.70;;;16.60;76.20;;;;;;5016756;27;95734;-55
2021/08/21 12:25:15;;;;;;;2.15;1.80;;;16.60;76.30;;;;;;5008108;27;97128;-55
2021/08/21 12:27:45;;;;;;;3.60;2.35;;;16.60;76.30;;;;;;5021460;27;95873;-55
2021/08/21 12:30:18;;;;;;;2.42;2.22;;;16.60;76.30;;;;;;5018681;27;95856;-57
2021/08/21 12:32:49;;;;;;;3.22;2.00;;;16.60;76.40;;;;;;5008658;27;102236;-57
2021/08/21 12:35:24;;;;;;;1.80;1.70;;;16.50;76.30;;;;;;5019240;27;96063;-54
2021/08/21 12:38:06;;;;;;;3.63;2.60;;;16.50;76.30;;;;;;5018927;27;95771;-56
2021/08/21 12:40:38;;;;;;;2.47;2.20;;;16.50;76.30;;;;;;5021000;27;95888;-56
2021/08/21 12:43:10;;;;;;;2.38;2.00;;;16.50;76.30;;;;;;5039424;27;96415;-56
2021/08/21 12:45:45;;;;;;;2.70;2.25;;;16.50;76.30;;;;;;5009438;27;97746;-55
2021/08/21 12:48:15;;;;;;;2.83;2.00;;;16.50;76.30;;;;;;5015161;27;96008;-54
2021/08/21 12:51:00;;;;;;;1.92;1.70;;;16.50;76.30;;;;;;5031013;27;95909;-56
2021/08/21 12:53:31;;;;;;;1.90;1.63;;;16.50;76.40;;;;;;5030024;28;95919;-55
2021/08/21 12:56:10;;;;;;;1.90;1.80;;;16.40;76.40;;;;;;5030888;27;95890;-58
2021/08/21 12:58:40;;;;;;;2.20;2.00;;;16.40;76.40;;;;;;5030528;28;95807;-57
2021/08/21 13:01:10;;;;;;;2.78;1.95;;;16.40;76.40;;;;;;5005538;28;96176;-55
2021/08/21 13:03:40;;;;;;;2.28;1.80;;;16.40;76.40;;;;;;5044842;27;95901;-53
2021/08/21 13:06:18;;;;;;;2.13;1.92;;;16.40;76.40;;;;;;5033108;27;95811;-55
2021/08/21 13:08:48;;;;;;;1.90;1.80;;;16.30;76.40;;;;;;5030171;28;95568;-55
2021/08/21 13:11:20;;;;;;;2.55;1.83;;;16.30;76.30;;;;;;5030351;27;96518;-52
2021/08/21 13:13:52;;;;;;;2.58;1.95;;;16.30;76.30;;;;;;5029887;28;95415;-55
2021/08/21 13:16:23;;;;;;;2.50;1.67;;;16.30;76.40;;;;;;5025084;27;95498;-55
2021/08/21 13:18:57;;;;;;;3.33;2.00;;;16.30;76.30;;;;;;5029090;28;95911;-55
2021/08/21 13:21:29;;;;;;;3.65;2.15;;;16.30;76.40;;;;;;5030231;27;96383;-56
2021/08/21 13:23:59;;;;;;;1.88;1.77;;;16.30;76.40;;;;;;5029980;28;95847;-53
2021/08/21 13:26:35;;;;;;;2.40;1.92;;;16.20;76.30;;;;;;5012579;27;95845;-55